Time;durP1;ratioP1;P1;durP2;ratioP2;P2;SDS_P1;SDS_P2;PMS_P1;PMS_P2;Temp;Humidity;BMP_temperature;BMP_pressure;BME280_temperature;BME280_humidity;BME280_pressure;Samples;Min_cycle;Max_cycle;Signal;HPM_P1;HPM_P2
2021/11/21 00:01:29;;;;;;;4.05;2.77;;;;;;;14.61;56.89;99028.88;1775955;80;21099;-60
2021/11/21 00:03:56;;;;;;;4.47;2.62;;;;;;;14.60;56.82;99026.41;1761890;79;21041;-60
2021/11/21 00:06:22;;;;;;;4.47;2.62;;;;;;;14.58;56.79;99022.61;1760378;79;21025;-61
2021/11/21 00:08:49;;;;;;;3.98;2.50;;;;;;;14.57;56.75;99036.21;1765925;80;21149;-60
2021/11/21 00:11:17;;;;;;;3.90;2.52;;;;;;;14.56;56.73;99039.34;1747056;80;21097;-61
2021/11/21 00:13:44;;;;;;;3.83;2.65;;;;;;;14.54;56.70;99038.25;1742133;81;21033;-61
2021/11/21 00:16:10;;;;;;;5.17;3.02;;;;;;;14.53;56.67;99042.46;1750454;80;21395;-60
2021/11/21 00:18:37;;;;;;;3.75;2.33;;;;;;;14.51;56.63;99036.51;1771980;80;21211;-63
2021/11/21 00:21:03;;;;;;;4.78;3.10;;;;;;;14.49;56.63;99042.05;1769373;80;22361;-61
2021/11/21 00:23:30;;;;;;;5.17;3.27;;;;;;;14.48;56.65;99028.90;1779628;79;20982;-60
2021/11/21 00:25:57;;;;;;;4.97;2.87;;;;;;;14.47;56.60;99033.95;1751052;80;21616;-61
2021/11/21 00:28:23;;;;;;;4.72;2.50;;;;;;;14.46;56.59;99032.30;1754877;80;21552;-62
2021/11/21 00:30:49;;;;;;;3.52;2.40;;;;;;;14.44;56.58;99033.84;1751857;80;21010;-62
2021/11/21 00:33:16;;;;;;;6.10;2.98;;;;;;;14.43;56.52;99031.38;1767835;80;21074;-61
2021/11/21 00:35:44;;;;;;;3.02;2.10;;;;;;;14.42;56.54;99025.73;1776643;80;21025;-61
2021/11/21 00:38:10;;;;;;;4.70;2.62;;;;;;;14.41;56.50;99028.94;1747103;80;21120;-61
2021/11/21 00:40:38;;;;;;;4.15;2.62;;;;;;;14.40;56.46;99026.47;1760352;79;20996;-61
2021/11/21 00:43:04;;;;;;;4.35;2.65;;;;;;;14.39;56.44;99024.81;1753197;80;21125;-61
2021/11/21 00:45:31;;;;;;;3.27;2.50;;;;;;;14.38;56.41;99015.17;1755480;80;21115;-61
2021/11/21 00:47:59;;;;;;;4.87;2.72;;;;;;;14.35;56.40;99006.55;1744141;80;21137;-61
2021/11/21 00:50:28;;;;;;;4.75;2.58;;;;;;;14.35;56.38;99015.90;1755621;80;21096;-59
2021/11/21 00:53:01;;;;;;;4.17;2.12;;;;;;;14.33;56.35;99001.93;1770031;80;21287;-60
2021/11/21 00:55:36;;;;;;;3.80;2.62;;;;;;;14.32;56.34;98997.60;1770188;80;21159;-61
2021/11/21 00:58:06;;;;;;;5.33;3.02;;;;;;;14.32;56.33;98998.12;1740909;81;21841;-60
2021/11/21 01:00:33;;;;;;;4.17;2.87;;;;;;;14.30;56.31;98996.99;1759255;79;21060;-61
2021/11/21 01:03:02;;;;;;;5.53;3.30;;;;;;;14.29;56.30;98996.70;1766136;79;21045;-61
2021/11/21 01:05:28;;;;;;;4.33;2.95;;;;;;;14.28;56.32;98992.91;1770178;79;21053;-61
2021/11/21 01:07:55;;;;;;;3.85;2.58;;;;;;;14.27;56.29;98993.39;1763808;79;21005;-61
2021/11/21 01:10:23;;;;;;;5.45;2.87;;;;;;;14.26;56.28;98990.44;1775833;79;21175;-62
2021/11/21 01:12:53;;;;;;;3.92;2.58;;;;;;;14.25;56.25;98979.95;1767018;79;21555;-60
2021/11/21 01:15:21;;;;;;;5.20;2.40;;;;;;;14.24;56.25;98984.48;1778570;79;21061;-60
2021/11/21 01:17:49;;;;;;;4.17;2.80;;;;;;;14.24;56.27;98976.99;1749253;80;21057;-61
2021/11/21 01:20:17;;;;;;;4.15;2.58;;;;;;;14.23;56.23;98978.82;1780889;79;21057;-61
2021/11/21 01:22:43;;;;;;;4.90;2.85;;;;;;;14.22;56.23;98971.85;1751056;80;23239;-59
2021/11/21 01:25:10;;;;;;;3.05;2.45;;;;;;;14.22;56.24;98966.52;1767618;80;21022;-60
2021/11/21 01:27:38;;;;;;;4.17;2.90;;;;;;;14.21;56.22;98966.72;1764676;79;21108;-60
2021/11/21 01:30:08;;;;;;;4.37;2.75;;;;;;;14.21;56.19;98961.38;1761842;79;21076;-61
2021/11/21 01:32:35;;;;;;;2.80;2.25;;;;;;;14.20;56.19;98957.05;1762021;79;21093;-61
2021/11/21 01:35:01;;;;;;;6.28;2.70;;;;;;;14.20;56.18;98953.04;1764148;79;21154;-60
2021/11/21 01:38:43;;;;;;;4.37;2.87;;;;;;;14.22;56.19;98940.32;1803019;78;28226;-60
2021/11/21 01:41:11;;;;;;;3.75;2.70;;;;;;;14.16;56.18;98939.31;1777556;80;20997;-61
2021/11/21 01:43:40;;;;;;;5.05;2.70;;;;;;;14.18;56.16;98947.09;1784383;80;21226;-61
2021/11/21 01:46:06;;;;;;;3.95;2.83;;;;;;;14.17;56.17;98942.27;1771970;80;21294;-61
2021/11/21 01:48:33;;;;;;;5.05;3.15;;;;;;;14.14;56.15;98930.17;1758710;80;21061;-59
2021/11/21 01:51:04;;;;;;;4.42;2.90;;;;;;;14.15;56.16;98934.98;1762197;80;21529;-60
2021/11/21 01:53:31;;;;;;;5.35;3.00;;;;;;;14.15;56.15;98928.31;1736996;81;21069;-59
2021/11/21 01:55:58;;;;;;;5.05;2.90;;;;;;;14.14;56.13;98924.02;1733935;81;23227;-60
2021/11/21 01:58:25;;;;;;;3.95;2.67;;;;;;;14.12;56.11;98929.56;1734077;81;21022;-60
2021/11/21 02:00:51;;;;;;;3.92;2.60;;;;;;;14.13;56.13;98926.37;1726491;81;20995;-61
2021/11/21 02:03:18;;;;;;;5.05;3.05;;;;;;;14.12;56.10;98918.87;1733057;81;21018;-62
2021/11/21 02:05:47;;;;;;;4.17;2.95;;;;;;;14.12;56.09;98924.74;1735954;81;21112;-60
2021/11/21 02:08:14;;;;;;;5.28;3.25;;;;;;;14.12;56.08;98931.42;1699186;83;21790;-61
2021/11/21 02:10:40;;;;;;;4.33;3.05;;;;;;;14.11;56.05;98927.91;1717548;82;21091;-60
2021/11/21 02:13:08;;;;;;;4.40;2.85;;;;;;;14.11;56.08;98928.43;1721084;82;21081;-60
2021/11/21 02:15:37;;;;;;;3.50;3.05;;;;;;;14.11;56.04;98931.10;1728679;82;21076;-61
2021/11/21 02:18:04;;;;;;;3.62;2.67;;;;;;;14.10;56.04;98932.96;1719398;82;21108;-60
2021/11/21 02:20:39;;;;;;;5.80;2.92;;;;;;;14.09;56.04;98929.97;1715502;82;21178;-61
2021/11/21 02:23:07;;;;;;;6.28;3.50;;;;;;;14.10;56.04;98934.78;1724005;82;21072;-61
2021/11/21 02:25:35;;;;;;;4.25;3.00;;;;;;;14.08;56.00;98917.66;1715687;82;21057;-60
2021/11/21 02:28:01;;;;;;;4.05;3.10;;;;;;;14.08;56.00;98922.16;1730198;82;21033;-64
2021/11/21 02:30:29;;;;;;;5.08;2.87;;;;;;;14.08;56.01;98916.82;1729942;82;21576;-61
2021/11/21 02:32:56;;;;;;;6.45;3.47;;;;;;;14.07;56.00;98911.19;1717077;82;21168;-60
2021/11/21 02:35:23;;;;;;;3.50;2.70;;;;;;;14.07;56.00;98920.02;1721718;82;21046;-60
2021/11/21 02:37:49;;;;;;;3.83;2.95;;;;;;;14.06;56.00;98914.39;1707770;82;21117;-62
2021/11/21 02:40:17;;;;;;;4.50;3.00;;;;;;;14.06;55.99;98903.70;1702039;84;21097;-60
2021/11/21 02:42:43;;;;;;;5.22;3.10;;;;;;;14.06;55.99;98898.86;1744618;81;21113;-60
2021/11/21 02:45:14;;;;;;;5.05;3.30;;;;;;;14.05;55.98;98898.05;1736757;81;21141;-60
2021/11/21 02:47:41;;;;;;;3.22;2.72;;;;;;;14.05;55.96;98898.05;1743425;81;21029;-60
2021/11/21 02:50:15;;;;;;;4.45;2.90;;;;;;;14.04;55.97;98887.56;1745822;81;21577;-60
2021/11/21 02:52:41;;;;;;;4.10;3.10;;;;;;;14.04;55.95;98889.75;1749624;82;21030;-61
2021/11/21 02:55:08;;;;;;;4.90;3.15;;;;;;;14.04;55.96;98895.09;1749562;82;21061;-61
2021/11/21 02:57:35;;;;;;;5.12;3.58;;;;;;;14.03;55.98;98880.60;1742388;82;21145;-61
2021/11/21 03:00:05;;;;;;;4.72;3.55;;;;;;;14.02;55.97;98886.44;1741985;82;21018;-61
2021/11/21 03:02:33;;;;;;;4.97;3.17;;;;;;;14.03;55.97;98877.94;1744579;81;21089;-62
2021/11/21 03:04:59;;;;;;;3.87;3.27;;;;;;;14.02;55.96;98885.63;1733750;82;21518;-60
2021/11/21 03:07:26;;;;;;;4.83;3.30;;;;;;;14.01;55.96;98877.33;1734278;82;21008;-61
2021/11/21 03:09:53;;;;;;;5.72;3.40;;;;;;;14.01;55.96;98871.46;1732296;82;21152;-61
2021/11/21 03:12:21;;;;;;;3.52;3.10;;;;;;;14.01;55.95;98868.79;1747109;82;21537;-60
2021/11/21 03:14:49;;;;;;;4.15;3.33;;;;;;;14.01;55.96;98860.78;1733856;82;21113;-60
2021/11/21 03:17:16;;;;;;;4.75;3.10;;;;;;;14.01;55.95;98861.30;1748145;82;21101;-61
2021/11/21 03:19:42;;;;;;;5.25;3.30;;;;;;;14.01;55.95;98854.62;1739459;82;21082;-63
2021/11/21 03:22:09;;;;;;;4.22;3.20;;;;;;;14.00;55.93;98863.13;1749193;82;21100;-61
2021/11/21 03:24:36;;;;;;;4.30;3.35;;;;;;;14.00;55.96;98875.15;1744185;82;21477;-61
2021/11/21 03:27:04;;;;;;;4.90;3.33;;;;;;;14.00;55.95;98869.81;1743593;82;21038;-60
2021/11/21 03:29:30;;;;;;;3.90;2.80;;;;;;;14.00;55.97;98872.48;1738144;82;21830;-60
2021/11/21 03:31:57;;;;;;;4.03;3.20;;;;;;;13.99;55.97;98879.39;1745288;82;21064;-63
2021/11/21 03:34:23;;;;;;;3.80;3.30;;;;;;;14.00;55.97;98881.83;1743111;82;21853;-60
2021/11/21 03:36:50;;;;;;;4.50;2.98;;;;;;;13.99;55.98;98881.53;1751014;81;21530;-60
2021/11/21 03:39:16;;;;;;;4.35;3.02;;;;;;;13.98;55.97;98877.21;1738491;80;22438;-61
2021/11/21 03:41:43;;;;;;;3.95;2.95;;;;;;;13.98;55.97;98872.39;1755029;80;21025;-60
2021/11/21 03:44:09;;;;;;;3.90;3.17;;;;;;;13.99;55.97;98876.72;1759518;80;21586;-61
2021/11/21 03:46:37;;;;;;;4.95;3.62;;;;;;;13.99;55.98;98878.05;1761238;80;21091;-61
2021/11/21 03:49:04;;;;;;;4.33;3.50;;;;;;;13.99;55.99;98872.71;1761602;80;21625;-61
2021/11/21 03:51:32;;;;;;;3.95;3.25;;;;;;;13.99;55.98;98880.72;1764275;80;21062;-60
2021/11/21 03:53:59;;;;;;;4.37;3.50;;;;;;;13.98;55.99;98880.41;1769131;80;21142;-60
2021/11/21 03:56:26;;;;;;;4.00;3.30;;;;;;;13.98;56.00;98877.73;1744725;80;21074;-61
2021/11/21 03:58:53;;;;;;;4.33;3.35;;;;;;;13.98;55.99;98873.20;1751464;80;21212;-61
2021/11/21 04:01:19;;;;;;;4.35;3.22;;;;;;;13.98;55.99;98877.21;1750529;80;21020;-61
2021/11/21 04:03:46;;;;;;;3.90;3.27;;;;;;;13.98;55.99;98873.20;1745723;80;21097;-61
2021/11/21 04:06:12;;;;;;;4.05;3.30;;;;;;;13.99;55.99;98868.70;1759510;80;21534;-61
2021/11/21 04:08:41;;;;;;;3.62;3.10;;;;;;;13.98;55.99;98877.21;1756379;80;21577;-61
2021/11/21 04:11:09;;;;;;;3.75;3.20;;;;;;;13.98;56.01;98863.86;1767765;80;21156;-61
2021/11/21 04:13:35;;;;;;;4.92;3.30;;;;;;;13.99;56.01;98874.05;1762566;80;21007;-61
2021/11/21 04:16:02;;;;;;;3.25;2.95;;;;;;;13.98;56.01;98879.07;1752166;80;21061;-62
2021/11/21 04:18:29;;;;;;;4.28;3.27;;;;;;;13.98;55.99;98877.73;1747980;80;21085;-61
2021/11/21 04:20:55;;;;;;;4.05;3.65;;;;;;;13.96;56.01;98874.78;1763024;80;21553;-62
2021/11/21 04:23:22;;;;;;;4.83;3.40;;;;;;;13.98;56.01;98880.41;1748852;80;21142;-61
2021/11/21 04:25:49;;;;;;;4.20;3.37;;;;;;;13.96;56.01;98873.44;1752181;80;21079;-61
2021/11/21 04:28:15;;;;;;;4.62;3.33;;;;;;;13.97;56.00;98876.92;1761013;80;21044;-60
2021/11/21 04:30:42;;;;;;;3.92;3.50;;;;;;;13.98;56.04;98877.73;1754826;80;21085;-60
2021/11/21 04:33:10;;;;;;;5.72;3.60;;;;;;;13.97;56.02;98874.25;1753240;80;21105;-60
2021/11/21 04:35:37;;;;;;;3.35;3.05;;;;;;;13.97;56.02;98884.94;1762910;80;21144;-60
2021/11/21 04:38:04;;;;;;;4.83;3.17;;;;;;;13.97;56.02;98878.26;1774399;80;21059;-60
2021/11/21 04:40:30;;;;;;;5.20;3.55;;;;;;;13.96;56.03;98878.78;1779643;80;21081;-60
2021/11/21 04:42:57;;;;;;;2.95;2.67;;;;;;;13.97;56.02;98871.58;1770904;80;20990;-61
2021/11/21 04:45:24;;;;;;;3.42;3.12;;;;;;;13.96;56.02;98876.11;1777443;80;21100;-60
2021/11/21 04:47:51;;;;;;;4.47;3.98;;;;;;;13.98;56.02;98868.39;1773758;80;21146;-60
2021/11/21 04:50:19;;;;;;;4.67;3.42;;;;;;;13.98;56.02;98868.39;1757420;80;21060;-60
2021/11/21 04:52:45;;;;;;;4.30;3.10;;;;;;;13.96;56.01;98877.45;1767187;80;21038;-60
2021/11/21 04:55:12;;;;;;;3.40;3.10;;;;;;;13.98;56.02;98875.06;1766120;80;21007;-60
2021/11/21 04:57:41;;;;;;;3.60;3.20;;;;;;;13.97;56.04;98874.25;1774452;80;21031;-61
2021/11/21 05:00:15;;;;;;;3.22;2.90;;;;;;;13.97;56.02;98876.92;1752956;80;21130;-61
2021/11/21 05:02:44;;;;;;;4.22;3.30;;;;;;;13.97;56.02;98879.59;1757105;80;21102;-61
2021/11/21 05:05:12;;;;;;;4.42;3.35;;;;;;;13.96;56.01;98870.77;1732781;82;21049;-60
2021/11/21 05:07:38;;;;;;;4.03;3.45;;;;;;;13.97;56.01;98878.26;1720596;82;21118;-61
2021/11/21 05:10:06;;;;;;;3.75;3.08;;;;;;;13.97;56.00;98876.92;1755286;80;21031;-61
2021/11/21 05:12:39;;;;;;;3.72;3.42;;;;;;;13.97;56.01;98876.92;1750905;80;21170;-62
2021/11/21 05:15:08;;;;;;;3.45;3.12;;;;;;;13.98;56.02;98883.08;1773070;80;21098;-61
2021/11/21 05:17:34;;;;;;;3.80;3.17;;;;;;;13.97;56.04;98874.25;1762636;80;21015;-61
2021/11/21 05:20:01;;;;;;;4.22;3.65;;;;;;;13.98;56.01;98868.39;1775042;80;21033;-61
2021/11/21 05:22:28;;;;;;;4.87;3.20;;;;;;;13.97;56.02;98863.57;1770458;80;21065;-60
2021/11/21 05:24:54;;;;;;;3.65;3.12;;;;;;;13.98;56.04;98863.86;1769878;80;21901;-61
2021/11/21 05:27:23;;;;;;;4.58;3.60;;;;;;;13.98;56.00;98859.05;1753838;80;21027;-61
2021/11/21 05:29:53;;;;;;;3.58;3.20;;;;;;;13.98;56.02;98855.03;1778779;80;21014;-61
2021/11/21 05:32:21;;;;;;;4.12;3.30;;;;;;;13.98;55.99;98859.05;1758494;80;21544;-60
2021/11/21 05:34:47;;;;;;;3.95;3.22;;;;;;;13.98;56.01;98856.38;1760270;80;21053;-60
2021/11/21 05:37:14;;;;;;;4.92;3.55;;;;;;;13.98;56.01;98859.05;1774330;80;21080;-61
2021/11/21 05:39:40;;;;;;;5.87;3.62;;;;;;;13.98;55.99;98854.52;1763609;80;21558;-59
2021/11/21 05:42:07;;;;;;;3.83;3.37;;;;;;;13.98;55.98;98851.84;1760118;80;21505;-60
2021/11/21 05:44:34;;;;;;;4.00;3.40;;;;;;;13.98;55.98;98847.84;1752472;80;21093;-60
2021/11/21 05:47:02;;;;;;;3.90;3.47;;;;;;;13.98;55.98;98851.03;1774101;80;21127;-60
2021/11/21 05:49:28;;;;;;;4.90;3.37;;;;;;;13.99;55.96;98851.35;1759521;80;22020;-60
2021/11/21 05:51:54;;;;;;;4.80;3.60;;;;;;;13.98;55.98;98857.71;1758116;80;21029;-61
2021/11/21 05:54:21;;;;;;;4.17;3.33;;;;;;;13.99;55.98;98856.69;1760962;80;21085;-60
2021/11/21 05:56:47;;;;;;;3.37;3.08;;;;;;;13.98;55.99;98840.35;1747749;80;21016;-62
2021/11/21 05:59:14;;;;;;;3.55;3.25;;;;;;;13.99;55.96;98844.67;1770865;80;21076;-60
2021/11/21 06:01:40;;;;;;;5.70;4.05;;;;;;;14.00;55.97;98838.28;1750212;80;21183;-60
2021/11/21 06:04:07;;;;;;;3.80;3.40;;;;;;;14.00;55.97;98840.44;1710343;83;21042;-61
2021/11/21 06:06:34;;;;;;;4.10;3.55;;;;;;;14.01;55.96;98846.61;1773631;80;21133;-62
2021/11/21 06:09:02;;;;;;;4.72;3.45;;;;;;;14.00;55.96;98844.96;1770173;80;21579;-60
2021/11/21 06:11:29;;;;;;;3.50;3.12;;;;;;;14.00;55.96;98848.45;1760573;80;21537;-61
2021/11/21 06:13:57;;;;;;;3.98;3.47;;;;;;;14.01;55.96;98843.42;1759375;80;21058;-60
2021/11/21 06:16:23;;;;;;;3.60;3.30;;;;;;;14.01;55.97;98831.93;1756660;80;21081;-60
2021/11/21 06:18:49;;;;;;;3.45;3.15;;;;;;;14.02;55.97;98838.37;1766197;80;21014;-61
2021/11/21 06:21:16;;;;;;;3.90;3.40;;;;;;;14.03;55.95;98843.22;1759384;80;21069;-61
2021/11/21 06:23:43;;;;;;;4.30;3.58;;;;;;;14.02;55.97;98834.36;1755600;80;21095;-61
2021/11/21 06:26:09;;;;;;;5.12;4.15;;;;;;;14.02;55.97;98845.05;1756963;80;21145;-61
2021/11/21 06:28:36;;;;;;;4.30;3.90;;;;;;;14.03;55.95;98838.69;1766999;80;21641;-61
2021/11/21 06:31:04;;;;;;;4.12;3.65;;;;;;;14.03;55.96;98842.69;1763004;80;21056;-61
2021/11/21 06:33:30;;;;;;;3.92;3.20;;;;;;;14.04;55.95;98847.52;1763976;80;22054;-61
2021/11/21 06:35:57;;;;;;;4.25;3.85;;;;;;;14.05;55.94;98849.97;1751983;80;21099;-60
2021/11/21 06:38:23;;;;;;;4.60;3.83;;;;;;;14.05;55.94;98843.30;1756802;80;21115;-61
2021/11/21 06:40:50;;;;;;;4.12;3.60;;;;;;;14.06;55.94;98844.11;1749075;80;21024;-61
2021/11/21 06:43:16;;;;;;;3.98;3.58;;;;;;;14.06;55.94;98836.09;1744366;80;21126;-61
2021/11/21 06:45:43;;;;;;;4.05;3.50;;;;;;;14.07;55.94;98842.56;1767399;80;21100;-61
2021/11/21 06:48:11;;;;;;;3.87;3.30;;;;;;;14.08;55.93;98836.21;1753899;80;21112;-61
2021/11/21 06:50:38;;;;;;;4.95;4.22;;;;;;;14.09;55.90;98833.02;1752565;80;22020;-61
2021/11/21 06:53:05;;;;;;;4.40;4.00;;;;;;;14.10;55.91;98831.97;1765891;80;21475;-62
2021/11/21 06:55:33;;;;;;;4.53;3.85;;;;;;;14.11;55.90;98825.61;1773103;80;21046;-60
2021/11/21 06:57:59;;;;;;;4.53;3.75;;;;;;;14.12;55.90;98831.27;1763374;80;21031;-61
2021/11/21 07:00:26;;;;;;;4.35;3.67;;;;;;;14.14;55.88;98834.54;1750882;80;21042;-60
2021/11/21 07:02:53;;;;;;;4.08;3.67;;;;;;;14.15;55.86;98832.16;1765281;80;21857;-61
2021/11/21 07:05:19;;;;;;;3.92;3.33;;;;;;;14.18;55.84;98837.08;1743918;80;21562;-61
2021/11/21 07:07:46;;;;;;;5.35;4.08;;;;;;;14.19;55.83;98834.70;1751292;80;21082;-61
2021/11/21 07:10:13;;;;;;;3.67;3.37;;;;;;;14.21;55.82;98833.97;1747870;80;21097;-61
2021/11/21 07:12:40;;;;;;;4.10;3.70;;;;;;;14.22;55.79;98834.28;1766415;80;21029;-60
2021/11/21 07:15:08;;;;;;;4.58;3.75;;;;;;;14.23;55.77;98830.56;1750621;80;21157;-61
2021/11/21 07:17:34;;;;;;;3.90;3.50;;;;;;;14.25;55.74;98829.83;1756125;80;21687;-62
2021/11/21 07:20:01;;;;;;;4.12;3.40;;;;;;;14.26;55.73;98832.01;1765586;80;21511;-61
2021/11/21 07:22:27;;;;;;;4.17;3.58;;;;;;;14.27;55.72;98828.29;1749006;80;21030;-61
2021/11/21 07:24:54;;;;;;;3.98;3.60;;;;;;;14.28;55.70;98829.94;1753214;80;21551;-60
2021/11/21 07:27:21;;;;;;;3.87;3.58;;;;;;;14.29;55.69;98831.06;1762303;80;21077;-61
2021/11/21 07:29:49;;;;;;;4.15;3.75;;;;;;;14.30;55.69;98828.69;1765093;80;21019;-61
2021/11/21 07:32:16;;;;;;;4.17;3.77;;;;;;;14.31;55.67;98827.66;1761414;80;21483;-61
2021/11/21 07:34:42;;;;;;;4.47;3.75;;;;;;;14.31;55.65;98835.67;1755003;80;21085;-60
2021/11/21 07:37:09;;;;;;;4.12;3.72;;;;;;;14.32;55.66;98846.66;1759708;80;21062;-62
2021/11/21 07:39:35;;;;;;;4.17;3.70;;;;;;;14.33;55.64;98838.11;1760308;80;21134;-60
2021/11/21 07:42:04;;;;;;;4.67;4.22;;;;;;;14.33;55.63;98836.28;1753556;80;21019;-60
2021/11/21 07:44:32;;;;;;;4.58;4.12;;;;;;;14.34;55.64;98833.89;1751325;80;21098;-60
2021/11/21 07:46:58;;;;;;;3.92;3.52;;;;;;;14.35;55.63;98836.88;1765226;80;21051;-60
2021/11/21 07:49:25;;;;;;;4.28;3.50;;;;;;;14.36;55.63;98835.02;1764377;80;21034;-61
2021/11/21 07:51:51;;;;;;;3.95;3.55;;;;;;;14.36;55.63;98831.83;1759829;80;21057;-61
2021/11/21 07:54:18;;;;;;;6.20;3.95;;;;;;;14.38;55.61;98835.63;1762365;80;21616;-61
2021/11/21 07:56:44;;;;;;;4.10;3.70;;;;;;;14.37;55.61;98844.69;1692024;83;21043;-60
2021/11/21 07:59:11;;;;;;;5.03;3.65;;;;;;;14.40;55.61;98834.08;1753904;80;21061;-61
2021/11/21 08:01:38;;;;;;;5.28;4.12;;;;;;;14.39;55.61;98835.09;1753235;80;21029;-61
2021/11/21 08:04:05;;;;;;;4.58;3.87;;;;;;;14.39;55.60;98836.44;1767129;80;21271;-62
2021/11/21 08:06:33;;;;;;;4.50;4.10;;;;;;;14.40;55.60;98835.41;1770736;80;21046;-62
2021/11/21 08:08:59;;;;;;;4.30;3.90;;;;;;;14.40;55.60;98838.90;1760640;80;21609;-60
2021/11/21 08:11:25;;;;;;;3.87;3.58;;;;;;;14.41;55.59;98836.55;1755750;80;21078;-61
2021/11/21 08:13:54;;;;;;;4.78;4.30;;;;;;;14.42;55.60;98838.69;1766358;80;21499;-61
2021/11/21 08:16:20;;;;;;;4.40;4.00;;;;;;;14.41;55.59;98837.88;1768777;80;21094;-61
2021/11/21 08:18:47;;;;;;;4.03;3.62;;;;;;;14.42;55.60;98843.51;1764960;80;21049;-60
2021/11/21 08:21:13;;;;;;;4.53;4.08;;;;;;;14.42;55.60;98828.81;1769277;80;22134;-61
2021/11/21 08:23:40;;;;;;;4.05;3.65;;;;;;;14.43;55.58;98841.16;1757079;80;21077;-61
2021/11/21 08:26:06;;;;;;;4.67;4.17;;;;;;;14.43;55.59;98840.31;1779284;80;21145;-63
2021/11/21 08:28:33;;;;;;;4.60;4.20;;;;;;;14.44;55.57;98840.63;1770052;80;21143;-60
2021/11/21 08:31:00;;;;;;;4.15;3.75;;;;;;;14.44;55.59;98840.11;1763220;80;20998;-61
2021/11/21 08:33:27;;;;;;;4.55;4.15;;;;;;;14.46;55.57;98833.22;1752405;80;21035;-61
2021/11/21 08:35:54;;;;;;;4.78;4.28;;;;;;;14.45;55.57;98837.75;1758563;80;20994;-60
2021/11/21 08:38:20;;;;;;;4.28;3.87;;;;;;;14.46;55.58;98836.70;1763756;80;21105;-61
2021/11/21 08:40:47;;;;;;;4.03;3.65;;;;;;;14.47;55.57;98834.34;1746032;80;21065;-60
2021/11/21 08:43:14;;;;;;;4.35;3.95;;;;;;;14.49;55.56;98832.27;1751591;80;21042;-61
2021/11/21 08:45:41;;;;;;;3.72;3.42;;;;;;;14.49;55.58;98833.61;1760767;80;21082;-61
2021/11/21 08:48:07;;;;;;;4.72;4.25;;;;;;;14.51;55.54;98841.41;1755809;80;21467;-61
2021/11/21 08:50:34;;;;;;;4.45;4.05;;;;;;;14.52;55.56;98836.36;1751603;80;20998;-61
2021/11/21 08:53:01;;;;;;;4.12;3.72;;;;;;;14.52;55.53;98838.50;1750315;80;21141;-61
2021/11/21 08:55:27;;;;;;;4.17;3.77;;;;;;;14.50;55.53;98829.07;1743136;80;21031;-60
2021/11/21 08:57:55;;;;;;;4.58;4.05;;;;;;;14.53;55.50;98824.12;1748053;80;21232;-61
2021/11/21 09:00:21;;;;;;;4.53;4.12;;;;;;;14.54;55.49;98831.61;1766711;80;21530;-62
2021/11/21 09:02:47;;;;;;;3.85;3.52;;;;;;;14.54;55.48;98824.44;1768096;80;21545;-61
2021/11/21 09:05:14;;;;;;;4.75;4.17;;;;;;;14.57;55.47;98835.23;1761839;80;21144;-61
2021/11/21 09:07:42;;;;;;;4.80;4.40;;;;;;;14.58;55.45;98827.50;1753789;80;21035;-60
2021/11/21 09:10:14;;;;;;;4.22;3.83;;;;;;;14.58;55.44;98831.51;1751043;80;21511;-60
2021/11/21 09:12:41;;;;;;;4.33;3.90;;;;;;;14.59;55.43;98821.13;1751635;80;20962;-61
2021/11/21 09:15:14;;;;;;;4.75;4.35;;;;;;;14.59;55.42;98813.64;1757762;80;21045;-62
2021/11/21 09:17:45;;;;;;;4.12;3.70;;;;;;;14.60;55.42;98806.72;1748093;80;21104;-63
2021/11/21 09:20:12;;;;;;;4.50;4.10;;;;;;;14.62;55.42;98818.04;1769648;80;21032;-63
2021/11/21 09:22:38;;;;;;;5.15;4.53;;;;;;;14.63;55.85;98812.98;1774161;80;21014;-64
2021/11/21 09:25:06;;;;;;;5.28;4.70;;;;;;;14.66;56.15;98817.91;1752235;80;21317;-63
2021/11/21 09:27:33;;;;;;;4.45;4.05;;;;;;;14.68;56.29;98819.84;1765106;80;22167;-64
2021/11/21 09:29:59;;;;;;;5.35;4.53;;;;;;;14.70;56.31;98814.28;1751119;80;22552;-63
2021/11/21 09:32:26;;;;;;;5.37;4.83;;;;;;;14.71;56.35;98814.04;1757750;80;21022;-63
2021/11/21 09:34:52;;;;;;;4.60;4.10;;;;;;;14.73;56.37;98824.52;1751739;80;20995;-63
2021/11/21 09:37:19;;;;;;;4.70;4.30;;;;;;;14.75;56.32;98811.23;1750936;80;21095;-64
2021/11/21 09:39:45;;;;;;;4.53;4.12;;;;;;;14.77;56.29;98814.22;1752046;80;21525;-61
2021/11/21 09:42:13;;;;;;;7.78;6.35;;;;;;;14.79;56.20;98755.99;1766720;80;21037;-60
2021/11/21 09:44:40;;;;;;;88.97;76.75;;;;;;;14.81;56.14;98749.38;1727503;80;21985;-62
2021/11/21 09:47:07;;;;;;;140.77;121.87;;;;;;;14.84;57.03;98753.48;1753392;80;21428;-62
2021/11/21 09:49:34;;;;;;;143.10;122.17;;;;;;;14.89;58.92;98745.11;1763128;80;21071;-60
2021/11/21 09:52:00;;;;;;;126.35;112.37;;;;;;;14.96;60.90;98789.16;1753714;80;21085;-63
2021/11/21 09:54:28;;;;;;;108.85;97.15;;;;;;;15.04;62.58;98782.19;1750879;80;21216;-62
2021/11/21 09:56:55;;;;;;;95.70;84.20;;;;;;;15.10;63.54;98776.47;1747909;80;21077;-60
2021/11/21 09:59:53;;;;;;;102.05;83.07;;;;;;;15.16;64.45;98782.27;1751635;80;21051;-62
2021/11/21 10:02:29;;;;;;;62.23;54.90;;;;;;;15.23;65.23;98779.02;1755536;80;21078;-62
2021/11/21 10:04:55;;;;;;;55.00;47.17;;;;;;;15.39;66.14;98768.77;1761440;80;21586;-61
2021/11/21 10:07:26;;;;;;;49.03;41.18;;;;;;;15.51;66.45;98774.50;1752377;80;21061;-62
2021/11/21 10:09:53;;;;;;;37.90;33.58;;;;;;;15.56;66.63;98780.51;1754503;80;21113;-60
2021/11/21 10:12:22;;;;;;;34.08;28.05;;;;;;;15.60;66.79;98764.82;1759577;80;21023;-61
2021/11/21 10:15:04;;;;;;;26.27;23.47;;;;;;;15.66;66.62;98766.59;1733935;81;21530;-61
2021/11/21 10:17:31;;;;;;;25.75;22.25;;;;;;;15.72;66.42;98763.01;1721305;82;21043;-63
2021/11/21 10:20:20;;;;;;;23.87;20.27;;;;;;;15.77;66.25;98771.22;1750576;80;21140;-63
2021/11/21 10:22:56;;;;;;;21.77;16.90;;;;;;;15.81;66.04;98761.70;1755260;80;21014;-63
2021/11/21 10:25:46;;;;;;;22.42;17.42;;;;;;;15.86;65.72;98771.22;1746762;80;21038;-62
2021/11/21 10:28:24;;;;;;;20.05;14.95;;;;;;;15.90;65.49;98754.98;1752188;80;21110;-63
2021/11/21 10:30:59;;;;;;;18.02;14.33;;;;;;;15.95;65.06;98765.54;1759592;80;21042;-62
2021/11/21 10:33:29;;;;;;;19.48;14.03;;;;;;;15.98;64.91;98757.88;1760649;80;21038;-63
2021/11/21 10:35:58;;;;;;;17.60;13.10;;;;;;;16.02;64.62;98763.06;1758034;80;21038;-62
2021/11/21 10:38:56;;;;;;;18.55;13.48;;;;;;;16.05;64.38;98751.91;1767314;80;21045;-64
2021/11/21 10:41:31;;;;;;;16.80;13.40;;;;;;;16.08;64.27;98754.11;1750292;80;21049;-64
2021/11/21 10:44:05;;;;;;;18.23;13.10;;;;;;;16.11;64.07;98759.03;1748579;80;21065;-64
2021/11/21 10:46:44;;;;;;;15.10;12.50;;;;;;;16.14;63.97;98744.34;1746315;80;22321;-62
2021/11/21 10:49:39;;;;;;;15.45;11.63;;;;;;;16.17;63.80;98755.96;1761640;80;21026;-64
2021/11/21 10:52:15;;;;;;;15.45;12.58;;;;;;;16.20;63.68;98749.31;1760618;80;21081;-64
2021/11/21 10:54:47;;;;;;;19.45;13.10;;;;;;;16.21;63.61;98754.45;1741694;80;21058;-64
2021/11/21 10:57:22;;;;;;;17.57;13.25;;;;;;;16.22;63.67;98751.24;1750927;80;21097;-62
2021/11/21 10:59:53;;;;;;;16.30;12.75;;;;;;;16.25;63.78;98739.55;1751634;80;21914;-62
2021/11/21 11:02:43;;;;;;;17.07;12.07;;;;;;;16.28;63.81;98733.74;1756312;80;21097;-63
2021/11/21 11:05:17;;;;;;;16.80;12.13;;;;;;;16.29;63.75;98717.12;1748056;80;21106;-61
2021/11/21 11:07:55;;;;;;;19.12;11.95;;;;;;;16.30;63.81;98710.70;1742576;80;21023;-62
2021/11/21 11:10:32;;;;;;;17.52;11.90;;;;;;;16.33;63.94;98702.75;1749100;80;21054;-61
2021/11/21 11:13:15;;;;;;;14.47;10.63;;;;;;;16.34;63.98;98721.28;1747111;80;21945;-62
2021/11/21 11:15:40;;;;;;;15.60;10.93;;;;;;;16.36;64.00;98715.17;1715032;82;21033;-61
2021/11/21 11:18:10;;;;;;;13.85;10.88;;;;;;;16.37;64.00;98711.42;1704204;82;21158;-61
2021/11/21 11:20:45;;;;;;;16.73;11.10;;;;;;;16.39;64.05;98711.20;1740669;80;21031;-61
2021/11/21 11:23:13;;;;;;;15.78;10.80;;;;;;;16.41;64.00;98723.84;1743460;80;21047;-62
2021/11/21 11:25:43;;;;;;;13.60;9.75;;;;;;;16.43;63.93;98701.65;1759262;80;21154;-61
2021/11/21 11:28:30;;;;;;;16.30;10.75;;;;;;;16.43;63.85;98704.33;1741233;80;21014;-62
2021/11/21 11:30:58;;;;;;;13.55;9.15;;;;;;;16.45;63.71;98707.06;1762888;80;21046;-62
2021/11/21 11:33:36;;;;;;;14.33;10.10;;;;;;;16.46;63.70;98716.75;1746896;80;21106;-61
2021/11/21 11:36:21;;;;;;;17.20;10.48;;;;;;;16.49;63.73;98716.27;1733688;80;21605;-62
2021/11/21 11:39:06;;;;;;;;;;;;;;;16.51;63.64;98712.02;1765967;80;21150;-63